Flight Track Log - Related Links

Times and Time Zones

All times are in EDT time to prevent confusion due to time zone crossing. See the FLG3939 flight status page for this flight to view local times or setup timezone preferences in your user account.

Time Position Orientation Groundspeed Altitude Reporting Facility
EDT Latitude Longitude Course Direction KTS MPH feet Rate Location/Type
Thu 12:54:33 PM 41.5681 -90.7492 309° West 254 292 9,100  Level Chicago Center
Thu 12:55:35 PM 41.6247 -90.8414 309° West 264 304 11,100 1,742 Climbing Chicago Center
Thu 12:56:37 PM 41.6819 -90.9358 309° West 320 368 12,700 1,597 Climbing Chicago Center
Thu 12:57:00 PM 41.7908 -91.0831 306° West  Level FlightAware Approximate
Thu 12:57:39 PM 41.7392 -91.0286 310° West 325 374 14,400  Level Chicago Center
Thu 01:00:45 PM 41.9283 -91.3392 309° West 345 397 19,100 1,398 Climbing Chicago Center
Thu 01:01:48 PM 41.9889 -91.4400 309° West 345 397 20,200 1,008 Climbing Chicago Center
Thu 01:02:50 PM 42.0497 -91.5425 309° West 349 402 21,200 1,016 Climbing Chicago Center
Thu 01:03:52 PM 42.1114 -91.6453 309° West 351 404 22,300 968 Climbing Chicago Center
Thu 01:04:54 PM 42.1739 -91.7489 309° West 354 407 23,200 823 Climbing Chicago Center
Thu 01:05:56 PM 42.2358 -91.8533 309° West 355 409 24,000 291 Climbing Chicago Center
Thu 01:06:00 PM 42.4442 -91.4988 309° West  Level Estimated
Thu 01:07:39 PM 42.3511 -92.0478 309° West 362 417 24,000  Level Minneapolis Center
Thu 01:09:02 PM 42.4386 -92.1950 309° West 365 420 24,000  Level Chicago Center
Thu 01:10:05 PM 42.5006 -92.3025 308° West 364 419 24,000  Level Chicago Center
Thu 01:11:48 PM 42.6311 -92.4678 317° Northwest 367 422 24,000  Level Minneapolis Center
Thu 01:12:50 PM 42.7153 -92.5414 327° Northwest 362 417 24,000  Level Minneapolis Center
Thu 01:14:13 PM 42.8514 -92.5978 343° North 370 426 24,000  Level Chicago Center
Thu 01:15:15 PM 42.9492 -92.6419 342° North 370 426 24,000  Level Chicago Center
Thu 01:17:19 PM 43.1494 -92.7300 342° North 377 434 24,000  Level Chicago Center
Thu 01:18:21 PM 43.2708 -92.7842 342° North 383 441 24,000  Level Chicago Center
Thu 01:19:02 PM 43.3339 -92.8117 342° North 386 444 24,000 -923 Level Minneapolis Center
Thu 01:20:05 PM 43.4389 -92.8589 342° North 395 455 22,400 -1,925 Descending Minneapolis Center
Thu 01:22:09 PM 43.6603 -92.9586 342° North 383 441 18,000 -1,968 Descending Minneapolis Center
Thu 01:23:11 PM 43.7550 -93.0000 342° North 368 423 16,300 -1,790 Descending Minneapolis Center
Thu 01:24:13 PM 43.8431 -93.0431 341° North 346 398 14,300 -1,935 Descending Minneapolis Center
Thu 01:25:15 PM 43.9347 -93.0831 343° North 346 398 12,300 -2,032 Descending Minneapolis Center
Thu 01:26:17 PM 44.0411 -93.1317 342° North 339 390 10,100 -1,113 Descending Minneapolis Center
Thu 01:27:19 PM 44.1217 -93.1689 342° North 281 323 10,000 -48 Descending Minneapolis Center
Thu 01:28:21 PM 44.1939 -93.2025 342° North 276 318 10,000  Level Minneapolis Center
Thu 01:30:31 PM 44.3500 -93.2167 North 278 320 10,000 -632 Level Minneapolis TRACON
Thu 01:31:31 PM 44.4333 -93.2000 North 273 314 8,000 -1,966 Descending Minneapolis TRACON
Thu 01:32:30 PM 44.5064 -93.2042 358° North 271 312 6,100 -1,190 Descending Minneapolis Center
Thu 01:33:32 PM 44.5786 -93.1997 North 265 305 5,600 -968 Descending Minneapolis Center
Thu 01:34:34 PM 44.6556 -93.1964 North 262 302 4,100 -968 Descending Minneapolis Center
Thu 01:35:36 PM 44.7244 -93.2000 358° North 248 285 3,600 -871 Descending Minneapolis Center
Thu 01:36:38 PM 44.7908 -93.2169 350° North 228 262 2,300 -1,016 Descending Minneapolis Center
Thu 01:37:40 PM 44.8328 -93.2281 349° North 159 183 1,500 -774 Descending Minneapolis Center
Thu 01:39:00 PM 44.8667 -93.2167 North  Level FlightAware Approximate
Thu 01:46:00 PM 44.8820 -93.2218 North  Level Estimated

Login

Don't have an account? Register now (free) for customized features, flight alerts, and more!